N45XS LIRZ-LIPE
Flight info
| Callsign | N45XS |
|---|---|
| Flight time | N/A |
| Altitude | 8000 |
| Route | KATAR5E KATAR DCT GOTMO DCT IBENI DCT IPKIS DCT VEBAL DCT ULZAK ULZAK2H |
| Aircraft | B58/L-SGYFDR/S |
Departure
| Time | N/A |
|---|---|
| Airport | Perugia San Francesco d'Assisi – Umbria International Airport (LIRZ) |
Arrival
| Time | 2026-04-27 19:45 |
|---|---|
| Airport | Bologna Guglielmo Marconi Airport (LIPE) |
| Time | Latitude | Longitude | Altitude | Speed | Heading |
|---|---|---|---|---|---|
| 2026-04-27 19:13 | 44.27031 | 12.91140 | 8079 ft | 186 kts | 263° |
| 2026-04-27 19:13 | 44.26831 | 12.89365 | 8073 ft | 186 kts | 263° |
| 2026-04-27 19:13 | 44.26631 | 12.87596 | 8074 ft | 185 kts | 263° |
| 2026-04-27 19:13 | 44.26429 | 12.85803 | 8077 ft | 185 kts | 262° |
| 2026-04-27 19:14 | 44.26230 | 12.84038 | 8082 ft | 185 kts | 263° |
| 2026-04-27 19:14 | 44.26029 | 12.82262 | 8081 ft | 185 kts | 263° |
| 2026-04-27 19:14 | 44.26097 | 12.80509 | 8089 ft | 183 kts | 286° |
| 2026-04-27 19:14 | 44.26485 | 12.78797 | 8079 ft | 184 kts | 289° |
| 2026-04-27 19:15 | 44.26884 | 12.77125 | 8068 ft | 184 kts | 289° |
| 2026-04-27 19:15 | 44.27288 | 12.75431 | 8080 ft | 184 kts | 289° |
| 2026-04-27 19:15 | 44.27694 | 12.73723 | 8081 ft | 184 kts | 290° |
| 2026-04-27 19:15 | 44.28097 | 12.72020 | 8075 ft | 184 kts | 289° |
| 2026-04-27 19:16 | 44.28498 | 12.70322 | 8080 ft | 184 kts | 289° |
| 2026-04-27 19:16 | 44.28766 | 12.69192 | 8085 ft | 184 kts | 289° |
| 2026-04-27 19:16 | 44.29304 | 12.66923 | 8076 ft | 184 kts | 289° |
| 2026-04-27 19:16 | 44.29707 | 12.65241 | 8076 ft | 184 kts | 289° |
| 2026-04-27 19:17 | 44.30117 | 12.63538 | 8082 ft | 184 kts | 289° |
| 2026-04-27 19:17 | 44.30523 | 12.61864 | 8079 ft | 184 kts | 290° |
| 2026-04-27 19:17 | 44.30935 | 12.60160 | 8081 ft | 184 kts | 290° |
| 2026-04-27 19:17 | 44.31338 | 12.58474 | 8083 ft | 184 kts | 290° |
| 2026-04-27 19:18 | 44.31746 | 12.56762 | 8081 ft | 185 kts | 290° |
| 2026-04-27 19:18 | 44.32146 | 12.55070 | 8075 ft | 184 kts | 289° |
| 2026-04-27 19:18 | 44.32549 | 12.53367 | 8081 ft | 184 kts | 289° |
| 2026-04-27 19:18 | 44.32948 | 12.51679 | 8084 ft | 185 kts | 290° |
| 2026-04-27 19:19 | 44.33353 | 12.49963 | 8081 ft | 185 kts | 290° |
| 2026-04-27 19:19 | 44.33752 | 12.48273 | 8083 ft | 185 kts | 290° |
| 2026-04-27 19:19 | 44.34162 | 12.46552 | 8048 ft | 186 kts | 290° |
| 2026-04-27 19:19 | 44.34572 | 12.44839 | 8043 ft | 187 kts | 290° |
| 2026-04-27 19:20 | 44.34986 | 12.43130 | 8032 ft | 187 kts | 290° |
| 2026-04-27 19:20 | 44.35403 | 12.41415 | 8037 ft | 186 kts | 290° |
| 2026-04-27 19:20 | 44.35820 | 12.39700 | 8037 ft | 186 kts | 290° |
| 2026-04-27 19:20 | 44.36233 | 12.38007 | 8036 ft | 185 kts | 290° |
| 2026-04-27 19:21 | 44.36648 | 12.36311 | 8034 ft | 185 kts | 290° |
| 2026-04-27 19:21 | 44.37065 | 12.34606 | 8033 ft | 185 kts | 289° |
| 2026-04-27 19:21 | 44.37479 | 12.32908 | 8035 ft | 185 kts | 289° |
| 2026-04-27 19:21 | 44.37894 | 12.31204 | 8039 ft | 185 kts | 289° |
| 2026-04-27 19:22 | 44.38308 | 12.29504 | 8039 ft | 185 kts | 289° |
| 2026-04-27 19:22 | 44.38721 | 12.27797 | 8036 ft | 185 kts | 289° |
| 2026-04-27 19:22 | 44.39133 | 12.26081 | 8037 ft | 185 kts | 289° |
| 2026-04-27 19:22 | 44.39542 | 12.24382 | 8034 ft | 185 kts | 289° |
| 2026-04-27 19:23 | 44.39953 | 12.22678 | 8037 ft | 185 kts | 289° |
| 2026-04-27 19:23 | 44.40363 | 12.20978 | 8040 ft | 185 kts | 289° |
| 2026-04-27 19:23 | 44.40778 | 12.19270 | 8036 ft | 186 kts | 289° |
| 2026-04-27 19:23 | 44.41197 | 12.17551 | 8036 ft | 185 kts | 289° |
| 2026-04-27 19:24 | 44.41610 | 12.15868 | 8038 ft | 185 kts | 289° |
| 2026-04-27 19:24 | 44.42030 | 12.14156 | 8042 ft | 185 kts | 289° |
| 2026-04-27 19:24 | 44.42448 | 12.12445 | 8042 ft | 186 kts | 289° |
| 2026-04-27 19:24 | 44.42863 | 12.10737 | 8032 ft | 186 kts | 289° |
| 2026-04-27 19:25 | 44.43270 | 12.09046 | 8037 ft | 185 kts | 289° |
| 2026-04-27 19:25 | 44.43681 | 12.07329 | 8031 ft | 185 kts | 289° |
| 2026-04-27 19:25 | 44.44093 | 12.05608 | 8038 ft | 185 kts | 289° |
| 2026-04-27 19:25 | 44.44501 | 12.03901 | 8037 ft | 186 kts | 289° |
| 2026-04-27 19:26 | 44.44914 | 12.02187 | 8036 ft | 186 kts | 289° |
| 2026-04-27 19:26 | 44.45328 | 12.00474 | 8037 ft | 186 kts | 289° |
| 2026-04-27 19:26 | 44.45741 | 11.98774 | 8037 ft | 186 kts | 289° |
| 2026-04-27 19:26 | 44.46158 | 11.97055 | 8041 ft | 186 kts | 289° |
| 2026-04-27 19:27 | 44.46576 | 11.95342 | 8041 ft | 186 kts | 289° |
| 2026-04-27 19:27 | 44.46993 | 11.93639 | 8036 ft | 186 kts | 289° |
| 2026-04-27 19:27 | 44.47409 | 11.91939 | 8029 ft | 186 kts | 289° |
| 2026-04-27 19:27 | 44.47826 | 11.90236 | 8029 ft | 185 kts | 289° |
| 2026-04-27 19:28 | 44.48246 | 11.88523 | 8035 ft | 185 kts | 289° |
| 2026-04-27 19:28 | 44.48663 | 11.86818 | 8041 ft | 186 kts | 289° |
| 2026-04-27 19:28 | 44.49083 | 11.85093 | 8043 ft | 186 kts | 289° |
| 2026-04-27 19:28 | 44.49498 | 11.83389 | 8042 ft | 186 kts | 289° |
| 2026-04-27 19:29 | 44.49910 | 11.81683 | 8040 ft | 185 kts | 289° |
| 2026-04-27 19:29 | 44.50320 | 11.79982 | 8043 ft | 185 kts | 289° |
| 2026-04-27 19:29 | 44.50735 | 11.78267 | 8039 ft | 185 kts | 289° |
| 2026-04-27 19:29 | 44.51151 | 11.76547 | 8032 ft | 185 kts | 289° |
| 2026-04-27 19:30 | 44.51564 | 11.74846 | 8038 ft | 185 kts | 289° |
| 2026-04-27 19:30 | 44.51980 | 11.73134 | 8036 ft | 185 kts | 289° |
| 2026-04-27 19:30 | 44.52396 | 11.71432 | 8041 ft | 185 kts | 289° |
| 2026-04-27 19:30 | 44.52809 | 11.69737 | 8036 ft | 185 kts | 289° |
| 2026-04-27 19:31 | 44.53224 | 11.68038 | 8032 ft | 185 kts | 289° |
| 2026-04-27 19:31 | 44.53640 | 11.66331 | 8046 ft | 185 kts | 289° |
| 2026-04-27 19:31 | 44.54057 | 11.64616 | 8035 ft | 185 kts | 289° |
| 2026-04-27 19:31 | 44.54469 | 11.62911 | 8035 ft | 185 kts | 289° |
| 2026-04-27 19:32 | 44.54883 | 11.61191 | 8042 ft | 185 kts | 289° |
| 2026-04-27 19:32 | 44.55292 | 11.59490 | 8036 ft | 185 kts | 289° |
| 2026-04-27 19:32 | 44.55706 | 11.57768 | 8024 ft | 184 kts | 289° |
| 2026-04-27 19:32 | 44.56109 | 11.56086 | 8035 ft | 184 kts | 289° |
| 2026-04-27 19:33 | 44.56517 | 11.54385 | 8039 ft | 184 kts | 289° |
| 2026-04-27 19:33 | 44.56792 | 11.53241 | 8038 ft | 184 kts | 289° |
| 2026-04-27 19:33 | 44.57338 | 11.50965 | 8043 ft | 184 kts | 289° |
| 2026-04-27 19:33 | 44.57746 | 11.49267 | 8040 ft | 184 kts | 289° |
| 2026-04-27 19:34 | 44.58154 | 11.47566 | 8037 ft | 184 kts | 289° |
| 2026-04-27 19:34 | 44.58562 | 11.45870 | 8037 ft | 184 kts | 289° |
| 2026-04-27 19:34 | 44.58969 | 11.44174 | 8035 ft | 185 kts | 289° |
| 2026-04-27 19:34 | 44.59391 | 11.42427 | 7799 ft | 191 kts | 289° |
| 2026-04-27 19:35 | 44.59820 | 11.40668 | 7532 ft | 190 kts | 290° |
| 2026-04-27 19:35 | 44.60251 | 11.38909 | 7282 ft | 189 kts | 289° |
| 2026-04-27 19:35 | 44.60676 | 11.37184 | 7046 ft | 188 kts | 289° |
| 2026-04-27 19:35 | 44.61102 | 11.35458 | 6799 ft | 187 kts | 289° |
| 2026-04-27 19:36 | 44.61526 | 11.33748 | 6545 ft | 186 kts | 289° |
| 2026-04-27 19:36 | 44.61954 | 11.32019 | 6301 ft | 187 kts | 289° |
| 2026-04-27 19:36 | 44.62381 | 11.30307 | 6056 ft | 186 kts | 289° |
| 2026-04-27 19:36 | 44.62808 | 11.28598 | 5813 ft | 187 kts | 289° |
| 2026-04-27 19:37 | 44.63238 | 11.26870 | 5566 ft | 187 kts | 289° |
| 2026-04-27 19:37 | 44.63662 | 11.25170 | 5324 ft | 187 kts | 289° |
| 2026-04-27 19:37 | 44.64090 | 11.23442 | 5086 ft | 186 kts | 289° |
| 2026-04-27 19:37 | 44.64512 | 11.21717 | 4844 ft | 186 kts | 289° |
| 2026-04-27 19:38 | 44.64929 | 11.20007 | 4604 ft | 186 kts | 289° |
| 2026-04-27 19:38 | 44.65338 | 11.18294 | 4350 ft | 186 kts | 284° |
| 2026-04-27 19:38 | 44.65445 | 11.16469 | 4092 ft | 187 kts | 274° |
| 2026-04-27 19:38 | 44.65538 | 11.14654 | 3846 ft | 186 kts | 274° |
| 2026-04-27 19:39 | 44.65627 | 11.12849 | 3605 ft | 186 kts | 269° |
| 2026-04-27 19:39 | 44.65134 | 11.11225 | 3345 ft | 185 kts | 224° |
| 2026-04-27 19:39 | 44.64046 | 11.10287 | 3104 ft | 184 kts | 205° |
| 2026-04-27 19:39 | 44.62887 | 11.09516 | 2861 ft | 185 kts | 204° |
| 2026-04-27 19:40 | 44.61652 | 11.09153 | 2598 ft | 183 kts | 169° |
| 2026-04-27 19:40 | 44.60560 | 11.09974 | 2412 ft | 178 kts | 130° |
| 2026-04-27 19:40 | 44.59871 | 11.11351 | 2469 ft | 169 kts | 124° |
| 2026-04-27 19:40 | 44.59318 | 11.12776 | 2371 ft | 163 kts | 117° |
| 2026-04-27 19:41 | 44.58847 | 11.14117 | 2179 ft | 143 kts | 117° |
| 2026-04-27 19:41 | 44.58435 | 11.15275 | 2022 ft | 126 kts | 118° |
| 2026-04-27 19:41 | 44.58053 | 11.16333 | 1869 ft | 116 kts | 118° |
| 2026-04-27 19:41 | 44.57695 | 11.17325 | 1719 ft | 112 kts | 118° |
| 2026-04-27 19:42 | 44.57346 | 11.18295 | 1574 ft | 109 kts | 118° |
| 2026-04-27 19:42 | 44.57010 | 11.19227 | 1433 ft | 105 kts | 118° |
| 2026-04-27 19:42 | 44.56681 | 11.20141 | 1295 ft | 103 kts | 118° |
| 2026-04-27 19:42 | 44.56361 | 11.21031 | 1160 ft | 102 kts | 118° |
| 2026-04-27 19:43 | 44.56041 | 11.21922 | 1024 ft | 102 kts | 118° |
| 2026-04-27 19:43 | 44.55724 | 11.22807 | 889 ft | 101 kts | 118° |
| 2026-04-27 19:43 | 44.55405 | 11.23693 | 756 ft | 101 kts | 118° |
| 2026-04-27 19:43 | 44.55088 | 11.24575 | 621 ft | 101 kts | 117° |
| 2026-04-27 19:44 | 44.54774 | 11.25449 | 490 ft | 101 kts | 117° |
| 2026-04-27 19:44 | 44.54458 | 11.26329 | 357 ft | 101 kts | 117° |
| 2026-04-27 19:44 | 44.54141 | 11.27208 | 204 ft | 100 kts | 117° |
| 2026-04-27 19:44 | 44.53839 | 11.28041 | 113 ft | 84 kts | 111° |
| 2026-04-27 19:45 | 44.53662 | 11.28541 | 113 ft | 31 kts | 116° |
| 2026-04-27 19:45 | 44.53581 | 11.28768 | 115 ft | 21 kts | 116° |
| 2026-04-27 19:45 | 44.53521 | 11.28930 | 116 ft | 17 kts | 117° |
| 2026-04-27 19:45 | 44.53466 | 11.29083 | 117 ft | 17 kts | 118° |
| 2026-04-27 19:46 | 44.53410 | 11.29241 | 118 ft | 18 kts | 117° |
| 2026-04-27 19:46 | 44.53352 | 11.29399 | 119 ft | 18 kts | 116° |
| 2026-04-27 19:46 | 44.53282 | 11.29547 | 120 ft | 18 kts | 131° |
| 2026-04-27 19:46 | 44.53178 | 11.29667 | 119 ft | 19 kts | 146° |
| 2026-04-27 19:47 | 44.53083 | 11.29754 | 119 ft | 10 kts | 147° |
| 2026-04-27 19:47 | 44.53080 | 11.29757 | 119 ft | 0 kts | 147° |
| 2026-04-27 19:48 | 44.53067 | 11.29769 | 119 ft | 8 kts | 148° |
| 2026-04-27 19:48 | 44.53050 | 11.29678 | 121 ft | 22 kts | 302° |
| 2026-04-27 19:48 | 44.53144 | 11.29432 | 123 ft | 33 kts | 296° |
| 2026-04-27 19:48 | 44.53261 | 11.29107 | 121 ft | 39 kts | 296° |
| 2026-04-27 19:49 | 44.53386 | 11.28759 | 118 ft | 40 kts | 298° |
| 2026-04-27 19:49 | 44.53502 | 11.28434 | 113 ft | 32 kts | 296° |
| 2026-04-27 19:49 | 44.53557 | 11.28282 | 113 ft | 10 kts | 297° |
| 2026-04-27 19:49 | 44.53596 | 11.28175 | 113 ft | 14 kts | 296° |
| 2026-04-27 19:50 | 44.53656 | 11.28007 | 113 ft | 24 kts | 296° |
| 2026-04-27 19:50 | 44.53698 | 11.27842 | 116 ft | 16 kts | 220° |
| 2026-04-27 19:50 | 44.53648 | 11.27769 | 116 ft | 15 kts | 245° |
| 2026-04-27 19:50 | 44.53606 | 11.27723 | 116 ft | 0 kts | 206° |